createdAt,value
2017-08-04T00:00:42.897Z,0
2017-08-04T00:01:45.731Z,0
2017-08-04T00:02:48.178Z,0
2017-08-04T00:03:50.970Z,0
2017-08-04T00:04:53.771Z,0
2017-08-04T00:05:56.228Z,0
2017-08-04T00:06:58.677Z,0
2017-08-04T00:08:01.124Z,0
2017-08-04T00:09:04.278Z,0
2017-08-04T00:10:07.086Z,0
2017-08-04T00:11:09.887Z,0
2017-08-04T00:12:12.350Z,0
2017-08-04T00:13:14.799Z,0
2017-08-04T00:14:18.269Z,0
2017-08-04T00:15:20.720Z,0
2017-08-04T00:16:23.871Z,0
2017-08-04T00:17:26.321Z,0
2017-08-04T00:18:29.130Z,0
2017-08-04T00:19:31.576Z,0
2017-08-04T00:20:34.023Z,0
2017-08-04T00:21:36.862Z,0
2017-08-04T00:22:39.999Z,0
2017-08-04T00:23:42.452Z,0
2017-08-04T00:24:45.577Z,0
2017-08-04T00:25:48.011Z,0
2017-08-04T00:26:50.805Z,0
2017-08-04T00:27:53.606Z,0
2017-08-04T00:28:56.394Z,0
2017-08-04T00:29:58.871Z,0
2017-08-04T00:31:01.335Z,0
2017-08-04T00:32:04.477Z,0
2017-08-04T00:33:07.258Z,0
2017-08-04T00:34:10.069Z,0
2017-08-04T00:35:12.513Z,0
2017-08-04T00:36:14.976Z,0
2017-08-04T00:37:17.412Z,0
2017-08-04T00:38:20.549Z,0
2017-08-04T00:39:22.998Z,0
2017-08-04T00:40:25.451Z,0
2017-08-04T00:41:28.576Z,0
2017-08-04T00:42:31.369Z,0
2017-08-04T00:43:34.156Z,0
2017-08-04T00:44:36.605Z,0
2017-08-04T00:45:39.048Z,0
2017-08-04T00:46:41.838Z,0
2017-08-04T00:47:44.627Z,0
2017-08-04T00:48:47.071Z,0
2017-08-04T00:49:49.867Z,0
2017-08-04T00:50:52.313Z,0
2017-08-04T00:51:54.775Z,0
2017-08-04T00:52:57.574Z,0
2017-08-04T00:54:00.702Z,0
2017-08-04T00:55:03.850Z,0
2017-08-04T00:56:06.636Z,0
2017-08-04T00:57:09.086Z,0
2017-08-04T00:58:11.538Z,0
2017-08-04T00:59:13.997Z,0
2017-08-04T01:00:16.785Z,0
2017-08-04T01:01:19.253Z,0
2017-08-04T01:02:22.373Z,0
2017-08-04T01:03:25.150Z,0
2017-08-04T01:04:27.598Z,0
2017-08-04T01:05:30.412Z,0
2017-08-04T01:06:32.894Z,0
2017-08-04T01:07:35.351Z,0
2017-08-04T01:08:37.801Z,0
2017-08-04T01:09:40.933Z,0
2017-08-04T01:10:44.406Z,0
2017-08-04T01:11:46.863Z,0
2017-08-04T01:12:49.310Z,0
2017-08-04T01:13:51.767Z,0
2017-08-04T01:14:54.211Z,0
2017-08-04T01:15:57.345Z,0
2017-08-04T01:17:00.136Z,0
2017-08-04T01:18:03.605Z,0
2017-08-04T01:19:06.387Z,0
2017-08-04T01:20:09.171Z,0
2017-08-04T01:21:11.633Z,0
2017-08-04T01:22:14.436Z,0
2017-08-04T01:23:16.884Z,0
2017-08-04T01:24:19.333Z,0
2017-08-04T01:25:21.768Z,0
2017-08-04T01:26:24.218Z,0
2017-08-04T01:27:26.688Z,0
2017-08-04T01:28:29.143Z,0
2017-08-04T01:29:31.596Z,0
2017-08-04T01:30:34.047Z,0
2017-08-04T01:31:36.497Z,0
2017-08-04T01:32:38.956Z,0
2017-08-04T01:33:41.401Z,0
2017-08-04T01:34:43.871Z,0
2017-08-04T01:35:46.325Z,0
2017-08-04T01:36:48.792Z,0
2017-08-04T01:37:51.577Z,0
2017-08-04T01:38:54.033Z,0
2017-08-04T01:39:56.820Z,0
2017-08-04T01:40:59.273Z,0
2017-08-04T01:42:01.740Z,0
2017-08-04T01:43:04.551Z,0
2017-08-04T01:44:07.352Z,0
2017-08-04T01:45:10.135Z,0
2017-08-04T01:46:12.937Z,0
2017-08-04T01:47:15.721Z,0
2017-08-04T01:48:18.519Z,0
2017-08-04T01:49:21.648Z,0
2017-08-04T01:50:24.095Z,0
2017-08-04T01:51:26.551Z,0
2017-08-04T01:52:29.002Z,0
2017-08-04T01:53:31.776Z,0
2017-08-04T01:54:34.567Z,0
2017-08-04T01:55:37.361Z,0
2017-08-04T01:56:40.152Z,0
2017-08-04T01:57:42.944Z,0
2017-08-04T01:58:46.768Z,0
2017-08-04T01:59:49.272Z,0
2017-08-04T02:00:51.743Z,0
2017-08-04T02:01:54.211Z,0
2017-08-04T02:02:56.674Z,0
2017-08-04T02:03:59.127Z,0
2017-08-04T02:05:01.915Z,0
2017-08-04T02:06:05.728Z,0
2017-08-04T02:07:08.515Z,0
2017-08-04T02:08:10.945Z,0
2017-08-04T02:09:14.761Z,0
2017-08-04T02:10:17.562Z,0
2017-08-04T02:11:20.017Z,0
2017-08-04T02:12:22.808Z,0
2017-08-04T02:13:25.258Z,0
2017-08-04T02:14:28.054Z,0
2017-08-04T02:15:31.182Z,0
2017-08-04T02:16:33.626Z,0
2017-08-04T02:17:36.458Z,0
2017-08-04T02:18:39.246Z,0
2017-08-04T02:19:41.722Z,0
2017-08-04T02:20:44.520Z,0
2017-08-04T02:21:46.973Z,0
2017-08-04T02:22:50.108Z,0
2017-08-04T02:23:52.904Z,0
2017-08-04T02:24:55.349Z,0
2017-08-04T02:25:57.810Z,0
2017-08-04T02:27:00.262Z,0
2017-08-04T02:28:03.046Z,0
2017-08-04T02:29:05.493Z,0
2017-08-04T02:30:07.937Z,0
2017-08-04T02:31:10.416Z,0
2017-08-04T02:32:12.881Z,0
2017-08-04T02:33:15.332Z,0
2017-08-04T02:34:17.796Z,0
2017-08-04T02:35:20.256Z,0
2017-08-04T02:36:23.042Z,0
2017-08-04T02:37:25.830Z,0
2017-08-04T02:38:28.290Z,0
2017-08-04T02:39:31.080Z,0
2017-08-04T02:40:33.536Z,0
2017-08-04T02:41:35.986Z,0
2017-08-04T02:42:38.793Z,0
2017-08-04T02:43:41.581Z,0
2017-08-04T02:44:45.065Z,0
2017-08-04T02:45:48.197Z,0
2017-08-04T02:46:50.984Z,0
2017-08-04T02:47:53.772Z,0
2017-08-04T02:48:56.911Z,0
2017-08-04T02:49:59.356Z,0
2017-08-04T02:51:01.854Z,0
2017-08-04T02:52:05.348Z,0
2017-08-04T02:53:08.485Z,0
2017-08-04T02:54:11.268Z,0
2017-08-04T02:55:14.057Z,0
2017-08-04T02:56:16.503Z,0
2017-08-04T02:57:19.309Z,0
2017-08-04T02:58:21.743Z,0
2017-08-04T02:59:24.213Z,0
2017-08-04T03:00:27.004Z,0
2017-08-04T03:01:30.141Z,0
2017-08-04T03:02:32.589Z,0
2017-08-04T03:03:35.392Z,0
2017-08-04T03:04:37.838Z,0
2017-08-04T03:05:40.968Z,0
2017-08-04T03:06:43.410Z,0
2017-08-04T03:07:45.851Z,0
2017-08-04T03:08:48.305Z,0
2017-08-04T03:09:51.095Z,0
2017-08-04T03:10:54.211Z,0
2017-08-04T03:11:56.657Z,0
2017-08-04T03:12:59.109Z,0
2017-08-04T03:14:01.884Z,0
2017-08-04T03:15:04.686Z,0
2017-08-04T03:16:07.149Z,0
2017-08-04T03:17:09.594Z,0
2017-08-04T03:18:12.055Z,0
2017-08-04T03:19:14.497Z,0
2017-08-04T03:20:16.946Z,0
2017-08-04T03:21:20.076Z,0
2017-08-04T03:22:22.850Z,0
2017-08-04T03:23:25.300Z,0
2017-08-04T03:24:28.105Z,0
2017-08-04T03:25:30.559Z,0
2017-08-04T03:26:33.019Z,1
2017-08-04T03:27:36.164Z,1
2017-08-04T03:28:38.963Z,1
2017-08-04T03:29:41.752Z,1
2017-08-04T03:30:44.553Z,1
2017-08-04T03:31:47.342Z,1
2017-08-04T03:32:50.478Z,1
2017-08-04T03:33:52.936Z,1
2017-08-04T03:34:55.722Z,1
2017-08-04T03:35:58.171Z,1
2017-08-04T03:37:01.290Z,1
2017-08-04T03:38:04.413Z,2
2017-08-04T03:39:06.876Z,2
2017-08-04T03:40:09.659Z,2
2017-08-04T03:41:12.452Z,2
2017-08-04T03:42:14.913Z,2
2017-08-04T03:43:17.373Z,2
2017-08-04T03:44:20.854Z,3
2017-08-04T03:45:23.303Z,3
2017-08-04T03:46:26.091Z,3
2017-08-04T03:47:28.891Z,3
2017-08-04T03:48:31.657Z,4
2017-08-04T03:49:34.118Z,4
2017-08-04T03:50:36.559Z,4
2017-08-04T03:51:39.010Z,5
2017-08-04T03:52:41.464Z,5
2017-08-04T03:53:44.257Z,5
2017-08-04T03:54:46.703Z,6
2017-08-04T03:55:49.159Z,6
2017-08-04T03:56:51.939Z,6
2017-08-04T03:57:54.413Z,7
2017-08-04T03:58:57.205Z,7
2017-08-04T03:59:59.664Z,7
2017-08-04T04:01:02.454Z,8
2017-08-04T04:02:05.592Z,8
2017-08-04T04:03:08.722Z,8
2017-08-04T04:04:11.522Z,8
2017-08-04T04:05:13.962Z,8
2017-08-04T04:06:16.451Z,8
2017-08-04T04:07:18.905Z,9
2017-08-04T04:08:21.366Z,9
2017-08-04T04:09:23.836Z,10
2017-08-04T04:10:26.302Z,10
2017-08-04T04:11:29.104Z,10
2017-08-04T04:12:31.899Z,11
2017-08-04T04:13:35.016Z,11
2017-08-04T04:14:38.556Z,11
2017-08-04T04:15:41.006Z,12
2017-08-04T04:16:43.455Z,12
2017-08-04T04:17:46.243Z,12
2017-08-04T04:18:49.035Z,12
2017-08-04T04:19:51.833Z,13
2017-08-04T04:20:54.288Z,14
2017-08-04T04:21:56.724Z,14
2017-08-04T04:22:59.172Z,15
2017-08-04T04:24:02.299Z,15
2017-08-04T04:25:05.086Z,15
2017-08-04T04:26:07.530Z,16
2017-08-04T04:27:09.968Z,17
2017-08-04T04:28:12.410Z,17
2017-08-04T04:29:15.214Z,18
2017-08-04T04:30:17.682Z,18
2017-08-04T04:31:20.136Z,19
2017-08-04T04:32:22.608Z,19
2017-08-04T04:33:26.101Z,20
2017-08-04T04:34:28.884Z,21
2017-08-04T04:35:31.341Z,22
2017-08-04T04:36:33.779Z,23
2017-08-04T04:37:36.240Z,24
2017-08-04T04:38:38.704Z,25
2017-08-04T04:39:41.156Z,25
2017-08-04T04:40:43.613Z,26
2017-08-04T04:41:46.409Z,27
2017-08-04T04:42:48.853Z,29
2017-08-04T04:43:51.982Z,30
2017-08-04T04:44:54.764Z,32
2017-08-04T04:45:57.215Z,33
2017-08-04T04:47:00.001Z,35
2017-08-04T04:48:03.143Z,36
2017-08-04T04:49:05.610Z,36
2017-08-04T04:50:08.397Z,36
2017-08-04T04:51:11.202Z,35
2017-08-04T04:52:14.009Z,35
2017-08-04T04:53:16.795Z,34
2017-08-04T04:54:19.593Z,34
2017-08-04T04:55:22.034Z,33
2017-08-04T04:56:24.822Z,32
2017-08-04T04:57:28.283Z,31
2017-08-04T04:58:30.729Z,29
2017-08-04T04:59:33.514Z,29
2017-08-04T05:00:35.980Z,29
2017-08-04T05:01:38.418Z,30
2017-08-04T05:02:41.207Z,31
2017-08-04T05:03:43.686Z,31
2017-08-04T05:04:46.467Z,30
2017-08-04T05:05:49.275Z,29
2017-08-04T05:06:52.054Z,29
2017-08-04T05:07:54.853Z,30
2017-08-04T05:08:57.978Z,31
2017-08-04T05:10:00.787Z,33
2017-08-04T05:11:03.569Z,32
2017-08-04T05:12:06.355Z,32
2017-08-04T05:13:09.472Z,31
2017-08-04T05:14:11.956Z,31
2017-08-04T05:15:14.424Z,33
2017-08-04T05:16:17.241Z,36
2017-08-04T05:17:19.704Z,38
2017-08-04T05:18:22.169Z,42
2017-08-04T05:19:24.617Z,46
2017-08-04T05:20:27.413Z,52
2017-08-04T05:21:29.856Z,56
2017-08-04T05:22:32.313Z,54
2017-08-04T05:23:35.114Z,55
2017-08-04T05:24:37.575Z,58
2017-08-04T05:25:40.024Z,54
2017-08-04T05:26:42.808Z,52
2017-08-04T05:27:45.597Z,54
2017-08-04T05:28:48.734Z,54
2017-08-04T05:29:51.866Z,57
2017-08-04T05:30:54.668Z,55
2017-08-04T05:31:57.125Z,55
2017-08-04T05:33:00.259Z,54
2017-08-04T05:34:03.049Z,50
2017-08-04T05:35:05.516Z,46
2017-08-04T05:36:07.980Z,40
2017-08-04T05:37:10.430Z,40
2017-08-04T05:38:12.903Z,40
2017-08-04T05:39:15.722Z,40
2017-08-04T05:40:18.165Z,38
2017-08-04T05:41:20.957Z,40
2017-08-04T05:42:23.401Z,41
2017-08-04T05:43:25.846Z,41
2017-08-04T05:44:28.632Z,48
2017-08-04T05:45:31.096Z,50
2017-08-04T05:46:33.883Z,59
2017-08-04T05:47:36.670Z,66
2017-08-04T05:48:39.125Z,65
2017-08-04T05:49:41.937Z,66
2017-08-04T05:50:44.416Z,69
2017-08-04T05:51:46.928Z,77
2017-08-04T05:52:49.711Z,81
2017-08-04T05:53:52.161Z,81
2017-08-04T05:54:54.970Z,75
2017-08-04T05:55:57.419Z,70
2017-08-04T05:57:00.204Z,66
2017-08-04T05:58:02.660Z,65
2017-08-04T05:59:06.140Z,65
2017-08-04T06:00:08.613Z,65
2017-08-04T06:01:11.763Z,64
2017-08-04T06:02:14.557Z,69
2017-08-04T06:03:17.341Z,73
2017-08-04T06:04:19.785Z,69
2017-08-04T06:05:22.238Z,69
2017-08-04T06:06:24.695Z,68
2017-08-04T06:07:27.137Z,69
2017-08-04T06:08:29.586Z,69
2017-08-04T06:09:32.437Z,73
2017-08-04T06:10:34.889Z,77
2017-08-04T06:11:37.338Z,81
2017-08-04T06:12:39.798Z,85
2017-08-04T06:13:42.606Z,86
2017-08-04T06:14:45.071Z,85
2017-08-04T06:15:47.519Z,82
2017-08-04T06:16:50.313Z,77
2017-08-04T06:17:52.758Z,73
2017-08-04T06:18:55.560Z,70
2017-08-04T06:19:58.013Z,67
2017-08-04T06:21:00.452Z,66
2017-08-04T06:22:03.937Z,63
2017-08-04T06:23:07.090Z,62
2017-08-04T06:24:09.897Z,68
2017-08-04T06:25:12.372Z,76
2017-08-04T06:26:15.158Z,83
2017-08-04T06:27:17.963Z,95
2017-08-04T06:28:20.766Z,100
2017-08-04T06:29:23.217Z,101
2017-08-04T06:30:25.672Z,96
2017-08-04T06:31:28.121Z,97
2017-08-04T06:32:30.572Z,100
2017-08-04T06:33:33.030Z,101
2017-08-04T06:34:35.820Z,95
2017-08-04T06:35:38.280Z,93
2017-08-04T06:36:40.732Z,91
2017-08-04T06:37:43.192Z,88
2017-08-04T06:38:45.647Z,85
2017-08-04T06:39:48.097Z,82
2017-08-04T06:40:50.555Z,80
2017-08-04T06:41:53.339Z,81
2017-08-04T06:42:55.779Z,81
2017-08-04T06:43:58.250Z,84
2017-08-04T06:45:00.724Z,88
2017-08-04T06:46:03.175Z,97
2017-08-04T06:47:05.643Z,103
2017-08-04T06:48:08.435Z,110
2017-08-04T06:49:11.574Z,105
2017-08-04T06:50:14.039Z,108
2017-08-04T06:51:16.503Z,101
2017-08-04T06:52:18.977Z,97
2017-08-04T06:53:22.459Z,92
2017-08-04T06:54:25.604Z,87
2017-08-04T06:55:28.064Z,77
2017-08-04T06:56:30.854Z,70
2017-08-04T06:57:33.293Z,74
2017-08-04T06:58:35.741Z,79
2017-08-04T06:59:38.209Z,79
2017-08-04T07:00:41.001Z,74
2017-08-04T07:01:43.806Z,72
2017-08-04T07:02:46.252Z,73
2017-08-04T07:03:48.702Z,74
2017-08-04T07:04:51.509Z,78
2017-08-04T07:05:53.980Z,84
2017-08-04T07:06:56.449Z,97
2017-08-04T07:07:58.917Z,103
2017-08-04T07:09:01.383Z,107
2017-08-04T07:10:04.168Z,109
2017-08-04T07:11:06.993Z,105
2017-08-04T07:12:09.457Z,103
2017-08-04T07:13:12.262Z,99
2017-08-04T07:14:14.715Z,98
2017-08-04T07:15:17.180Z,96
2017-08-04T07:16:19.976Z,98
2017-08-04T07:17:22.449Z,100
2017-08-04T07:18:24.891Z,106
2017-08-04T07:19:27.350Z,111
2017-08-04T07:20:30.151Z,110
2017-08-04T07:21:32.609Z,107
2017-08-04T07:22:35.075Z,105
2017-08-04T07:23:37.542Z,108
2017-08-04T07:24:40.000Z,108
2017-08-04T07:25:42.808Z,109
2017-08-04T07:26:45.612Z,113
2017-08-04T07:27:48.066Z,118
2017-08-04T07:28:50.518Z,121
2017-08-04T07:29:53.308Z,119
2017-08-04T07:30:56.096Z,116
2017-08-04T07:31:58.564Z,114
2017-08-04T07:33:01.013Z,112
2017-08-04T07:34:03.814Z,110
2017-08-04T07:35:06.955Z,111
2017-08-04T07:36:09.411Z,119
2017-08-04T07:37:11.873Z,130
2017-08-04T07:38:14.667Z,128
2017-08-04T07:39:17.112Z,137
2017-08-04T07:40:19.566Z,138
2017-08-04T07:41:22.010Z,138
2017-08-04T07:42:24.487Z,140
2017-08-04T07:43:26.950Z,136
2017-08-04T07:44:29.398Z,134
2017-08-04T07:45:31.857Z,128
2017-08-04T07:46:34.307Z,132
2017-08-04T07:47:37.098Z,137
2017-08-04T07:48:39.551Z,129
2017-08-04T07:49:41.998Z,122
2017-08-04T07:50:45.136Z,119
2017-08-04T07:51:47.941Z,119
2017-08-04T07:52:51.069Z,110
2017-08-04T07:53:53.511Z,108
2017-08-04T07:54:55.967Z,110
2017-08-04T07:55:58.754Z,115
2017-08-04T07:57:01.221Z,119
2017-08-04T07:58:04.363Z,115
2017-08-04T07:59:06.816Z,120
2017-08-04T08:00:09.651Z,115
2017-08-04T08:01:12.118Z,135
2017-08-04T08:02:14.577Z,153
2017-08-04T08:03:17.376Z,162
2017-08-04T08:04:19.829Z,155
2017-08-04T08:05:22.286Z,168
2017-08-04T08:06:24.753Z,163
2017-08-04T08:07:27.204Z,172
2017-08-04T08:08:29.646Z,168
2017-08-04T08:09:32.464Z,161
2017-08-04T08:10:35.275Z,151
2017-08-04T08:11:37.744Z,151
2017-08-04T08:12:40.208Z,154
2017-08-04T08:13:42.685Z,169
2017-08-04T08:14:45.139Z,180
2017-08-04T08:15:47.941Z,175
2017-08-04T08:16:50.403Z,172
2017-08-04T08:17:52.838Z,167
2017-08-04T08:18:55.293Z,170
2017-08-04T08:19:57.747Z,161
2017-08-04T08:21:00.197Z,181
2017-08-04T08:22:02.990Z,183
2017-08-04T08:23:05.448Z,176
2017-08-04T08:24:07.910Z,172
2017-08-04T08:25:10.402Z,171
2017-08-04T08:26:12.873Z,168
2017-08-04T08:27:15.356Z,170
2017-08-04T08:28:18.468Z,172
2017-08-04T08:29:21.620Z,176
2017-08-04T08:30:24.419Z,172
2017-08-04T08:31:26.897Z,174
2017-08-04T08:32:29.345Z,184
2017-08-04T08:33:32.145Z,209
2017-08-04T08:34:34.589Z,206
2017-08-04T08:35:37.041Z,202
2017-08-04T08:36:39.837Z,210
2017-08-04T08:37:42.298Z,218
2017-08-04T08:38:44.753Z,215
2017-08-04T08:39:47.204Z,218
2017-08-04T08:40:49.655Z,214
2017-08-04T08:41:52.143Z,236
2017-08-04T08:42:54.588Z,231
2017-08-04T08:43:57.378Z,219
2017-08-04T08:44:59.827Z,231
2017-08-04T08:46:02.291Z,232
2017-08-04T08:47:05.429Z,216
2017-08-04T08:48:07.891Z,191
2017-08-04T08:49:10.344Z,199
2017-08-04T08:50:13.142Z,202
2017-08-04T08:51:15.593Z,205
2017-08-04T08:52:18.050Z,216
2017-08-04T08:53:20.517Z,210
2017-08-04T08:54:23.633Z,175
2017-08-04T08:55:26.084Z,202
2017-08-04T08:56:28.899Z,239
2017-08-04T08:57:32.032Z,206
2017-08-04T08:58:34.563Z,259
2017-08-04T08:59:37.024Z,264
2017-08-04T09:00:39.482Z,269
2017-08-04T09:01:41.935Z,258
2017-08-04T09:02:44.731Z,262
2017-08-04T09:03:47.174Z,372
2017-08-04T09:04:49.636Z,346
2017-08-04T09:05:52.100Z,286
2017-08-04T09:06:54.914Z,388
2017-08-04T09:07:57.371Z,351
2017-08-04T09:08:59.829Z,343
2017-08-04T09:10:02.630Z,330
2017-08-04T09:11:05.426Z,342
2017-08-04T09:12:08.218Z,354
2017-08-04T09:13:10.687Z,492
2017-08-04T09:14:13.126Z,513
2017-08-04T09:15:15.579Z,469
2017-08-04T09:16:18.032Z,498
2017-08-04T09:17:20.477Z,580
2017-08-04T09:18:22.934Z,495
2017-08-04T09:19:26.071Z,457
2017-08-04T09:20:28.521Z,567
2017-08-04T09:21:31.336Z,378
2017-08-04T09:22:33.792Z,387
2017-08-04T09:23:36.246Z,445
2017-08-04T09:24:38.722Z,495
2017-08-04T09:25:41.511Z,599
2017-08-04T09:26:44.325Z,458
2017-08-04T09:27:46.787Z,609
2017-08-04T09:28:49.244Z,616
2017-08-04T09:29:52.044Z,616
2017-08-04T09:30:54.514Z,630
2017-08-04T09:31:57.301Z,656
2017-08-04T09:32:59.771Z,621
2017-08-04T09:34:02.576Z,627
2017-08-04T09:35:05.469Z,194
2017-08-04T09:36:08.607Z,398
2017-08-04T09:37:11.430Z,677
2017-08-04T09:38:13.909Z,653
2017-08-04T09:39:16.352Z,460
2017-08-04T09:40:18.830Z,671
2017-08-04T09:41:21.306Z,568
2017-08-04T09:42:24.105Z,461
2017-08-04T09:43:26.567Z,872
2017-08-04T09:44:29.036Z,836
2017-08-04T09:45:31.480Z,646
2017-08-04T09:46:33.972Z,153
2017-08-04T09:47:36.432Z,196
2017-08-04T09:48:39.233Z,140
2017-08-04T09:49:41.692Z,123
2017-08-04T09:50:44.159Z,154
2017-08-04T09:51:46.609Z,686
2017-08-04T09:52:49.091Z,663
2017-08-04T09:53:51.554Z,237
2017-08-04T09:54:54.348Z,203
2017-08-04T09:55:56.819Z,267
2017-08-04T09:56:59.276Z,532
2017-08-04T09:58:01.752Z,218
2017-08-04T09:59:04.226Z,625
2017-08-04T10:00:07.028Z,144
2017-08-04T10:01:09.832Z,150
2017-08-04T10:02:12.637Z,171
2017-08-04T10:03:15.092Z,168
2017-08-04T10:04:17.557Z,763
2017-08-04T10:05:20.369Z,168
2017-08-04T10:06:23.171Z,200
2017-08-04T10:07:25.961Z,770
2017-08-04T10:08:28.425Z,779
2017-08-04T10:09:31.234Z,716
2017-08-04T10:10:33.691Z,692
2017-08-04T10:11:36.504Z,819
2017-08-04T10:12:39.312Z,284
2017-08-04T10:13:41.760Z,786
2017-08-04T10:14:44.900Z,300
2017-08-04T10:15:47.360Z,152
2017-08-04T10:16:49.825Z,107
2017-08-04T10:17:52.286Z,91
2017-08-04T10:18:54.757Z,81
2017-08-04T10:19:57.206Z,88
2017-08-04T10:21:00.006Z,140
2017-08-04T10:22:02.815Z,388
2017-08-04T10:23:05.602Z,356
2017-08-04T10:24:08.066Z,886
2017-08-04T10:25:10.857Z,278
2017-08-04T10:26:13.356Z,152
2017-08-04T10:27:15.824Z,154
2017-08-04T10:28:18.280Z,793
2017-08-04T10:29:20.731Z,883
2017-08-04T10:30:23.200Z,233
2017-08-04T10:31:25.647Z,255
2017-08-04T10:32:28.112Z,261
2017-08-04T10:33:30.580Z,900
2017-08-04T10:34:33.039Z,490
2017-08-04T10:35:35.499Z,890
2017-08-04T10:36:37.965Z,161
2017-08-04T10:37:40.756Z,122
2017-08-04T10:38:43.223Z,134
2017-08-04T10:39:45.686Z,262
2017-08-04T10:40:48.166Z,914
2017-08-04T10:41:50.626Z,161
2017-08-04T10:42:53.086Z,112
2017-08-04T10:43:55.567Z,74
2017-08-04T10:44:58.024Z,70
2017-08-04T10:46:00.477Z,82
2017-08-04T10:47:02.945Z,78
2017-08-04T10:48:05.387Z,104
2017-08-04T10:49:07.843Z,113
2017-08-04T10:50:10.646Z,143
2017-08-04T10:51:13.114Z,401
2017-08-04T10:52:15.577Z,212
2017-08-04T10:53:18.030Z,174
2017-08-04T10:54:20.840Z,156
2017-08-04T10:55:23.314Z,135
2017-08-04T10:56:25.791Z,551
2017-08-04T10:57:28.579Z,562
2017-08-04T10:58:31.036Z,721
2017-08-04T10:59:33.512Z,773
2017-08-04T11:00:35.966Z,242
2017-08-04T11:01:39.111Z,332
2017-08-04T11:02:41.556Z,351
2017-08-04T11:03:44.694Z,823
2017-08-04T11:04:47.511Z,777
2017-08-04T11:05:49.980Z,797
2017-08-04T11:06:52.786Z,794
2017-08-04T11:07:55.238Z,734
2017-08-04T11:08:57.706Z,766
2017-08-04T11:10:00.172Z,800
2017-08-04T11:11:03.645Z,689
2017-08-04T11:12:07.124Z,912
2017-08-04T11:13:09.925Z,918
2017-08-04T11:14:12.409Z,878
2017-08-04T11:15:15.561Z,882
2017-08-04T11:16:18.020Z,792
2017-08-04T11:17:20.803Z,717
2017-08-04T11:18:23.276Z,686
2017-08-04T11:19:26.074Z,310
2017-08-04T11:20:28.536Z,200
2017-08-04T11:21:31.333Z,793
2017-08-04T11:22:33.801Z,343
2017-08-04T11:23:36.297Z,766
2017-08-04T11:24:39.452Z,502
2017-08-04T11:25:42.604Z,793
2017-08-04T11:26:45.080Z,815
2017-08-04T11:27:47.538Z,846
2017-08-04T11:28:50.031Z,687
2017-08-04T11:29:52.484Z,728
2017-08-04T11:30:55.304Z,803
2017-08-04T11:31:57.763Z,701
2017-08-04T11:33:00.223Z,739
2017-08-04T11:34:03.032Z,783
2017-08-04T11:35:05.835Z,735
2017-08-04T11:36:08.284Z,787
2017-08-04T11:37:11.121Z,751
2017-08-04T11:38:14.274Z,582
2017-08-04T11:39:16.745Z,532
2017-08-04T11:40:19.216Z,637
2017-08-04T11:41:21.678Z,130
2017-08-04T11:42:24.133Z,167
2017-08-04T11:43:26.640Z,791
2017-08-04T11:44:29.103Z,156
2017-08-04T11:45:32.300Z,763
2017-08-04T11:46:35.500Z,695
2017-08-04T11:47:38.010Z,802
2017-08-04T11:48:40.532Z,881
2017-08-04T11:49:43.392Z,171
2017-08-04T11:50:46.618Z,135
2017-08-04T11:51:49.487Z,151
2017-08-04T11:52:51.985Z,193
2017-08-04T11:53:54.527Z,363
2017-08-04T11:54:57.060Z,822
2017-08-04T11:55:59.578Z,352
2017-08-04T11:57:02.090Z,823
2017-08-04T11:58:05.639Z,210
2017-08-04T11:59:08.480Z,760
2017-08-04T12:00:11.011Z,203
2017-08-04T12:01:13.533Z,798
2017-08-04T12:02:16.052Z,737
2017-08-04T12:03:19.235Z,739
2017-08-04T12:04:21.745Z,728
2017-08-04T12:05:24.605Z,198
2017-08-04T12:06:27.119Z,133
2017-08-04T12:07:29.629Z,134
2017-08-04T12:08:32.142Z,160
2017-08-04T12:09:34.631Z,156
2017-08-04T12:10:37.162Z,162
2017-08-04T12:11:39.668Z,232
2017-08-04T12:12:42.521Z,258
2017-08-04T12:13:45.691Z,214
2017-08-04T12:14:48.535Z,223
2017-08-04T12:15:51.414Z,752
2017-08-04T12:16:53.934Z,216
2017-08-04T12:17:56.780Z,740
2017-08-04T12:18:59.283Z,676
2017-08-04T12:20:01.799Z,758
2017-08-04T12:21:04.659Z,659
2017-08-04T12:22:07.526Z,694
2017-08-04T12:23:10.382Z,258
2017-08-04T12:24:13.222Z,735
2017-08-04T12:25:16.073Z,643
2017-08-04T12:26:18.599Z,367
2017-08-04T12:27:21.466Z,202
2017-08-04T12:28:23.995Z,738
2017-08-04T12:29:26.498Z,748
2017-08-04T12:30:29.690Z,182
2017-08-04T12:31:32.570Z,170
2017-08-04T12:32:35.064Z,402
2017-08-04T12:33:37.573Z,188
2017-08-04T12:34:40.407Z,199
2017-08-04T12:35:42.913Z,352
2017-08-04T12:36:45.425Z,301
2017-08-04T12:37:47.929Z,301
2017-08-04T12:38:50.457Z,198
2017-08-04T12:39:52.963Z,168
2017-08-04T12:40:55.800Z,287
2017-08-04T12:41:58.658Z,294
2017-08-04T12:43:01.162Z,205
2017-08-04T12:44:03.992Z,201
2017-08-04T12:45:06.868Z,250
2017-08-04T12:46:10.065Z,397
2017-08-04T12:47:12.595Z,605
2017-08-04T12:48:15.451Z,706
2017-08-04T12:49:17.966Z,698
2017-08-04T12:50:20.805Z,635
2017-08-04T12:51:23.321Z,704
2017-08-04T12:52:26.152Z,706
2017-08-04T12:53:28.999Z,202
2017-08-04T12:54:31.494Z,703
2017-08-04T12:55:34.678Z,630
2017-08-04T12:56:37.181Z,236
2017-08-04T12:57:40.034Z,181
2017-08-04T12:58:42.523Z,227
2017-08-04T12:59:45.038Z,216
2017-08-04T13:00:47.681Z,190
2017-08-04T13:01:50.562Z,282
2017-08-04T13:02:53.092Z,242
2017-08-04T13:03:58.575Z,214
2017-08-04T13:05:03.273Z,368
2017-08-04T13:06:08.894Z,216
2017-08-04T13:07:15.370Z,232
2017-08-04T13:08:19.190Z,222
2017-08-04T13:09:22.037Z,238
2017-08-04T13:10:25.215Z,204
2017-08-04T13:11:28.059Z,178
2017-08-04T13:12:30.924Z,468
2017-08-04T13:13:33.431Z,282
2017-08-04T13:14:35.949Z,230
2017-08-04T13:15:38.476Z,196
2017-08-04T13:16:40.999Z,191
2017-08-04T13:17:43.564Z,207
2017-08-04T13:18:46.783Z,606
2017-08-04T13:19:49.640Z,633
2017-08-04T13:20:52.283Z,216
2017-08-04T13:21:55.145Z,245
2017-08-04T13:22:57.670Z,294
2017-08-04T13:24:00.215Z,213
2017-08-04T13:25:03.437Z,213
2017-08-04T13:26:05.954Z,567
2017-08-04T13:27:08.479Z,494
2017-08-04T13:28:10.999Z,553
2017-08-04T13:29:13.839Z,595
2017-08-04T13:30:16.720Z,592
2017-08-04T13:31:19.239Z,563
2017-08-04T13:32:21.776Z,547
2017-08-04T13:33:24.317Z,138
2017-08-04T13:34:26.852Z,652
2017-08-04T13:35:29.363Z,238
2017-08-04T13:36:31.890Z,138
2017-08-04T13:37:34.404Z,175
2017-08-04T13:38:37.252Z,180
2017-08-04T13:39:39.766Z,124
2017-08-04T13:40:42.313Z,124
2017-08-04T13:41:44.839Z,161
2017-08-04T13:42:47.697Z,481
2017-08-04T13:43:50.218Z,581
2017-08-04T13:44:52.745Z,521
2017-08-04T13:45:55.264Z,527
2017-08-04T13:46:57.781Z,479
2017-08-04T13:48:00.625Z,484
2017-08-04T13:49:03.508Z,528
2017-08-04T13:50:06.042Z,565
2017-08-04T13:51:08.573Z,562
2017-08-04T13:52:12.433Z,563
2017-08-04T13:53:15.312Z,529
2017-08-04T13:54:17.825Z,547
2017-08-04T13:55:20.685Z,541
2017-08-04T13:56:23.529Z,525
2017-08-04T13:57:26.046Z,602
2017-08-04T13:58:28.924Z,625
2017-08-04T13:59:31.443Z,564
2017-08-04T14:00:34.307Z,491
2017-08-04T14:01:36.848Z,442
2017-08-04T14:02:39.372Z,446
2017-08-04T14:03:41.900Z,516
2017-08-04T14:04:44.757Z,505
2017-08-04T14:05:47.966Z,502
2017-08-04T14:06:50.813Z,161
2017-08-04T14:07:53.319Z,648
2017-08-04T14:08:55.846Z,531
2017-08-04T14:09:58.354Z,345
2017-08-04T14:11:01.198Z,219
2017-08-04T14:12:03.719Z,199
2017-08-04T14:13:06.221Z,304
2017-08-04T14:14:09.089Z,344
2017-08-04T14:15:11.956Z,314
2017-08-04T14:16:14.463Z,291
2017-08-04T14:17:17.317Z,496
2017-08-04T14:18:19.844Z,143
2017-08-04T14:19:22.714Z,93
2017-08-04T14:20:25.252Z,94
2017-08-04T14:21:27.761Z,92
2017-08-04T14:22:30.263Z,88
2017-08-04T14:23:32.783Z,64
2017-08-04T14:24:35.284Z,54
2017-08-04T14:25:37.793Z,52
2017-08-04T14:26:40.306Z,58
2017-08-04T14:27:42.815Z,73
2017-08-04T14:28:45.316Z,87
2017-08-04T14:29:47.831Z,111
2017-08-04T14:30:50.670Z,146
2017-08-04T14:31:53.182Z,157
2017-08-04T14:32:56.029Z,149
2017-08-04T14:33:58.545Z,138
2017-08-04T14:35:01.054Z,145
2017-08-04T14:36:03.903Z,159
2017-08-04T14:37:06.416Z,201
2017-08-04T14:38:08.930Z,237
2017-08-04T14:40:11.920Z,175
2017-08-04T14:41:15.150Z,270
2017-08-04T14:42:18.356Z,173
2017-08-04T14:43:21.216Z,158
2017-08-04T14:44:23.741Z,118
2017-08-04T14:45:26.594Z,101
2017-08-04T14:46:29.825Z,92
2017-08-04T14:47:32.361Z,91